createdAt,value
2022-09-17T00:01:27.133Z,3.10
2022-09-17T00:04:02.087Z,4.47
2022-09-17T00:06:29.097Z,2.60
2022-09-17T00:08:56.092Z,2.95
2022-09-17T00:11:29.034Z,3.97
2022-09-17T00:13:58.851Z,9.82
2022-09-17T00:16:36.073Z,2.55
2022-09-17T00:19:05.641Z,3.70
2022-09-17T00:21:32.696Z,3.00
2022-09-17T00:24:04.381Z,2.97
2022-09-17T00:26:33.243Z,3.53
2022-09-17T00:29:01.336Z,3.17
2022-09-17T00:31:29.847Z,3.03
2022-09-17T00:33:57.810Z,2.67
2022-09-17T00:36:24.528Z,2.53
2022-09-17T00:38:53.444Z,3.40
2022-09-17T00:41:22.212Z,1.83
2022-09-17T00:43:58.376Z,4.07
2022-09-17T00:46:44.481Z,2.78
2022-09-17T00:49:18.547Z,4.85
2022-09-17T00:52:00.304Z,2.67
2022-09-17T00:54:28.342Z,2.63
2022-09-17T00:56:56.951Z,1.85
2022-09-17T00:59:24.609Z,3.92
2022-09-17T01:01:51.476Z,3.60
2022-09-17T01:04:21.654Z,3.97
2022-09-17T01:07:09.110Z,3.58
2022-09-17T01:10:05.038Z,2.40
2022-09-17T01:13:32.965Z,2.97
2022-09-17T01:16:25.859Z,2.80
2022-09-17T01:19:21.093Z,4.43
2022-09-17T01:21:59.779Z,3.67
2022-09-17T01:24:54.281Z,5.00
2022-09-17T01:30:32.442Z,2.22
2022-09-17T01:33:13.688Z,2.22
2022-09-17T01:36:20.525Z,5.53
2022-09-17T01:39:16.181Z,3.03
2022-09-17T01:41:53.012Z,2.72
2022-09-17T01:45:00.601Z,3.03
2022-09-17T01:47:35.659Z,2.42
2022-09-17T01:50:09.706Z,1.25
2022-09-17T01:52:41.715Z,2.47
2022-09-17T01:55:15.197Z,2.67
2022-09-17T01:57:53.152Z,3.63
2022-09-17T02:00:20.555Z,2.30
2022-09-17T02:03:22.976Z,3.65
2022-09-17T02:05:59.685Z,1.98
2022-09-17T02:08:37.160Z,3.65
2022-09-17T02:11:09.980Z,2.85
2022-09-17T02:13:52.394Z,5.32
2022-09-17T02:16:28.500Z,4.53
2022-09-17T02:19:12.144Z,4.43
2022-09-17T02:21:58.046Z,5.07
2022-09-17T02:24:38.897Z,4.72
2022-09-17T02:27:34.927Z,4.63
2022-09-17T02:30:01.780Z,3.33
2022-09-17T02:32:28.548Z,3.53
2022-09-17T02:34:55.330Z,3.08
2022-09-17T02:37:22.487Z,3.08
2022-09-17T02:39:49.369Z,2.97
2022-09-17T02:42:27.073Z,4.70
2022-09-17T02:45:12.318Z,2.47
2022-09-17T02:48:07.304Z,2.83
2022-09-17T02:50:54.925Z,3.13
2022-09-17T02:53:52.213Z,4.85
2022-09-17T02:56:36.045Z,3.80
2022-09-17T02:59:46.928Z,3.10
2022-09-17T03:02:38.384Z,4.03
2022-09-17T03:05:08.392Z,5.05
2022-09-17T03:07:36.374Z,3.45
2022-09-17T03:10:03.986Z,5.53
2022-09-17T03:12:31.042Z,3.45
2022-09-17T03:14:57.849Z,3.40
2022-09-17T03:17:24.661Z,4.32
2022-09-17T03:19:51.433Z,3.15
2022-09-17T03:22:18.373Z,3.50
2022-09-17T03:24:45.130Z,4.05
2022-09-17T03:27:12.073Z,3.63
2022-09-17T03:29:38.923Z,4.72
2022-09-17T03:32:06.043Z,5.68
2022-09-17T03:34:33.040Z,2.90
2022-09-17T03:36:59.765Z,4.07
2022-09-17T03:39:26.478Z,3.25
2022-09-17T03:41:53.783Z,2.95
2022-09-17T03:44:22.865Z,4.13
2022-09-17T03:46:50.780Z,4.80
2022-09-17T03:49:17.633Z,2.67
2022-09-17T03:51:44.621Z,3.08
2022-09-17T03:54:11.354Z,3.42
2022-09-17T03:56:38.061Z,3.65
2022-09-17T03:59:04.911Z,4.63
2022-09-17T04:01:31.768Z,4.95
2022-09-17T04:03:58.916Z,3.92
2022-09-17T04:06:25.799Z,4.47
2022-09-17T04:08:53.088Z,3.70
2022-09-17T04:11:19.959Z,4.80
2022-09-17T04:13:46.681Z,3.95
2022-09-17T04:16:13.465Z,2.42
2022-09-17T04:18:40.291Z,3.00
2022-09-17T04:21:07.254Z,4.40
2022-09-17T04:23:33.995Z,4.15
2022-09-17T04:26:00.764Z,3.10
2022-09-17T04:28:27.729Z,5.82
2022-09-17T04:30:54.547Z,3.22
2022-09-17T04:33:22.111Z,3.28
2022-09-17T04:35:49.151Z,3.28
2022-09-17T04:38:18.510Z,5.85
2022-09-17T04:40:46.556Z,3.60
2022-09-17T04:43:14.015Z,2.78
2022-09-17T04:45:41.044Z,5.30
2022-09-17T04:48:07.817Z,4.07
2022-09-17T04:50:35.134Z,4.13
2022-09-17T04:53:01.911Z,3.75
2022-09-17T04:55:29.053Z,7.15
2022-09-17T04:57:55.756Z,4.47
2022-09-17T05:00:23.587Z,4.00
2022-09-17T05:02:53.906Z,5.13
2022-09-17T05:05:22.553Z,3.83
2022-09-17T05:07:49.593Z,3.60
2022-09-17T05:10:19.724Z,7.50
2022-09-17T05:12:55.124Z,2.50
2022-09-17T05:15:24.185Z,3.88
2022-09-17T05:17:51.110Z,4.78
2022-09-17T05:20:18.898Z,3.17
2022-09-17T05:22:51.805Z,5.07
2022-09-17T05:25:24.545Z,2.67
2022-09-17T05:27:53.292Z,4.97
2022-09-17T05:30:20.759Z,7.10
2022-09-17T05:32:47.630Z,3.75
2022-09-17T05:35:14.712Z,3.83
2022-09-17T05:37:41.455Z,4.22
2022-09-17T05:40:09.387Z,3.42
2022-09-17T05:42:36.354Z,3.40
2022-09-17T05:45:03.548Z,5.00
2022-09-17T05:47:30.274Z,5.30
2022-09-17T05:49:57.560Z,2.97
2022-09-17T05:52:28.183Z,3.25
2022-09-17T05:54:56.058Z,2.63
2022-09-17T05:57:22.922Z,3.42
2022-09-17T05:59:49.643Z,3.88
2022-09-17T06:02:16.464Z,2.95
2022-09-17T06:04:43.227Z,5.80
2022-09-17T06:07:10.079Z,6.10
2022-09-17T06:09:41.050Z,3.55
2022-09-17T06:12:08.274Z,4.03
2022-09-17T06:14:35.206Z,2.88
2022-09-17T06:17:01.938Z,4.30
2022-09-17T06:19:28.675Z,4.18
2022-09-17T06:21:55.870Z,5.07
2022-09-17T06:24:22.664Z,6.25
2022-09-17T06:26:49.393Z,3.35
2022-09-17T06:29:16.122Z,5.72
2022-09-17T06:31:46.097Z,4.10
2022-09-17T06:34:12.915Z,6.72
2022-09-17T06:36:39.942Z,9.50
2022-09-17T06:39:07.076Z,5.00
2022-09-17T06:41:34.199Z,8.55
2022-09-17T06:44:02.099Z,7.60
2022-09-17T06:46:28.983Z,5.35
2022-09-17T06:48:56.100Z,6.25
2022-09-17T06:51:23.516Z,6.43
2022-09-17T06:53:50.540Z,10.45
2022-09-17T06:56:17.860Z,7.80
2022-09-17T06:58:44.770Z,6.32
2022-09-17T07:01:13.342Z,8.35
2022-09-17T07:03:43.359Z,4.90
2022-09-17T07:06:11.236Z,6.25
2022-09-17T07:08:39.423Z,7.90
2022-09-17T07:11:06.728Z,6.25
2022-09-17T07:13:34.013Z,6.53
2022-09-17T07:16:03.038Z,6.57
2022-09-17T07:18:29.858Z,5.38
2022-09-17T07:21:02.363Z,5.70
2022-09-17T07:23:32.397Z,10.63
2022-09-17T07:26:13.597Z,7.28
2022-09-17T07:28:41.837Z,8.10
2022-09-17T07:31:13.785Z,4.47
2022-09-17T07:33:42.976Z,5.53
2022-09-17T07:36:15.491Z,7.00
2022-09-17T07:38:42.221Z,5.07
2022-09-17T07:41:16.521Z,7.40
2022-09-17T07:43:44.166Z,5.80
2022-09-17T07:46:17.610Z,4.93
2022-09-17T07:48:45.006Z,7.35
2022-09-17T07:51:22.058Z,5.93
2022-09-17T07:53:56.053Z,7.68
2022-09-17T07:56:24.441Z,8.00
2022-09-17T07:58:51.902Z,8.88
2022-09-17T08:01:21.225Z,8.48
2022-09-17T08:03:51.597Z,7.97
2022-09-17T08:06:22.848Z,5.72
2022-09-17T08:08:50.233Z,7.13
2022-09-17T08:11:44.541Z,7.03
2022-09-17T08:14:12.859Z,6.20
2022-09-17T08:16:39.978Z,6.70
2022-09-17T08:19:07.272Z,6.00
2022-09-17T08:21:34.044Z,7.50
2022-09-17T08:24:00.982Z,7.20
2022-09-17T08:26:27.913Z,7.95
2022-09-17T08:28:56.527Z,5.75
2022-09-17T08:31:27.005Z,4.82
2022-09-17T08:33:53.902Z,4.60
2022-09-17T08:36:22.628Z,5.65
2022-09-17T08:38:54.079Z,5.32
2022-09-17T08:41:49.606Z,5.22
2022-09-17T08:44:41.204Z,7.13
2022-09-17T08:47:26.180Z,5.72
2022-09-17T08:50:01.261Z,6.95
2022-09-17T08:53:12.533Z,5.30
2022-09-17T08:56:02.846Z,8.02
2022-09-17T08:58:41.566Z,5.18
2022-09-17T09:01:32.181Z,5.07
2022-09-17T09:04:41.555Z,5.05
2022-09-17T09:07:15.042Z,7.25
2022-09-17T09:10:06.874Z,4.97
2022-09-17T09:12:37.443Z,4.85
2022-09-17T09:15:15.334Z,5.80
2022-09-17T09:17:47.299Z,5.10
2022-09-17T09:20:26.897Z,5.57
2022-09-17T09:22:53.774Z,5.78
2022-09-17T09:25:27.050Z,3.78
2022-09-17T09:28:11.257Z,4.78
2022-09-17T09:31:20.879Z,6.32
2022-09-17T09:33:49.252Z,5.60
2022-09-17T09:36:21.753Z,6.97
2022-09-17T09:39:14.102Z,5.13
2022-09-17T09:41:51.640Z,5.53
2022-09-17T09:44:18.913Z,5.07
2022-09-17T09:47:34.482Z,5.80
2022-09-17T09:50:31.503Z,7.75
2022-09-17T09:53:40.574Z,5.18
2022-09-17T09:57:08.937Z,6.47
2022-09-17T09:59:36.222Z,4.20
2022-09-17T10:02:04.028Z,5.78
2022-09-17T10:04:33.485Z,5.13
2022-09-17T10:07:04.242Z,5.03
2022-09-17T10:09:34.351Z,6.13
2022-09-17T10:12:09.461Z,3.28
2022-09-17T10:14:38.878Z,4.45
2022-09-17T10:17:25.067Z,5.95
2022-09-17T10:20:10.120Z,4.45
2022-09-17T10:22:40.188Z,4.88
2022-09-17T10:25:32.966Z,4.07
2022-09-17T10:28:20.509Z,3.30
2022-09-17T10:31:08.693Z,4.35
2022-09-17T10:33:40.685Z,5.55
2022-09-17T10:36:13.545Z,5.70
2022-09-17T10:38:46.484Z,5.10
2022-09-17T10:41:22.148Z,5.40
2022-09-17T10:43:50.435Z,4.82
2022-09-17T10:46:33.774Z,5.40
2022-09-17T10:49:34.539Z,4.13
2022-09-17T10:52:20.003Z,5.82
2022-09-17T10:55:13.850Z,6.28
2022-09-17T10:58:08.217Z,4.30
2022-09-17T11:01:02.458Z,4.22
2022-09-17T11:04:27.239Z,5.60
2022-09-17T11:07:18.215Z,4.32
2022-09-17T11:10:11.427Z,5.13
2022-09-17T11:12:56.270Z,5.78
2022-09-17T11:15:53.012Z,5.38
2022-09-17T11:18:45.576Z,2.92
2022-09-17T11:21:45.515Z,2.60
2022-09-17T11:24:33.566Z,4.75
2022-09-17T11:27:27.847Z,5.55
2022-09-17T11:30:16.494Z,2.40
2022-09-17T11:33:07.125Z,3.25
2022-09-17T11:35:40.874Z,4.38
2022-09-17T11:38:22.108Z,5.18
2022-09-17T11:41:16.663Z,3.55
2022-09-17T11:44:10.155Z,3.03
2022-09-17T11:46:52.280Z,3.63
2022-09-17T11:49:44.823Z,5.57
2022-09-17T11:52:24.203Z,2.95
2022-09-17T11:55:17.822Z,3.25
2022-09-17T11:57:47.185Z,3.78
2022-09-17T12:00:20.047Z,5.00
2022-09-17T12:03:10.622Z,4.25
2022-09-17T12:05:48.257Z,2.85
2022-09-17T12:08:48.494Z,2.65
2022-09-17T12:11:33.845Z,3.70
2022-09-17T12:14:29.836Z,2.45
2022-09-17T12:17:03.422Z,2.75
2022-09-17T12:19:43.021Z,2.20
2022-09-17T12:22:22.802Z,2.83
2022-09-17T12:24:54.341Z,2.38
2022-09-17T12:27:53.339Z,2.10
2022-09-17T12:30:26.382Z,2.97
2022-09-17T12:33:27.784Z,2.30
2022-09-17T12:36:16.065Z,2.55
2022-09-17T12:39:15.306Z,3.20
2022-09-17T12:41:59.301Z,4.90
2022-09-17T12:44:50.926Z,4.28
2022-09-17T12:47:56.187Z,4.32
2022-09-17T12:50:55.034Z,2.00
2022-09-17T12:53:30.529Z,5.10
2022-09-17T12:56:25.757Z,2.03
2022-09-17T12:59:10.976Z,2.40
2022-09-17T13:02:03.932Z,3.17
2022-09-17T13:05:05.808Z,2.20
2022-09-17T13:08:05.567Z,2.70
2022-09-17T13:10:43.626Z,2.20
2022-09-17T13:14:03.009Z,3.22
2022-09-17T13:17:06.079Z,3.65
2022-09-17T13:19:47.648Z,3.58
2022-09-17T13:22:20.024Z,1.65
2022-09-17T13:25:01.089Z,2.40
2022-09-17T13:27:29.360Z,2.45
2022-09-17T13:29:56.051Z,1.25
2022-09-17T13:32:34.895Z,2.22
2022-09-17T13:35:10.428Z,2.95
2022-09-17T13:37:53.036Z,3.75
2022-09-17T13:40:25.677Z,2.55
2022-09-17T13:43:03.724Z,2.80
2022-09-17T13:45:51.165Z,4.15
2022-09-17T13:48:26.268Z,1.98
2022-09-17T13:50:53.566Z,1.90
2022-09-17T13:53:27.219Z,3.88
2022-09-17T13:56:02.398Z,2.47
2022-09-17T13:58:36.288Z,2.50
2022-09-17T14:03:41.992Z,3.42
2022-09-17T14:06:09.071Z,3.10
2022-09-17T14:08:44.892Z,3.70
2022-09-17T14:11:23.806Z,8.05
2022-09-17T14:13:52.024Z,4.18
2022-09-17T14:16:29.116Z,2.95
2022-09-17T14:19:24.105Z,1.98
2022-09-17T14:22:06.034Z,3.70
2022-09-17T14:24:44.468Z,2.40
2022-09-17T14:28:13.830Z,2.17
2022-09-17T14:30:44.148Z,3.80
2022-09-17T14:33:26.201Z,4.30
2022-09-17T14:36:01.781Z,4.25
2022-09-17T14:38:44.323Z,3.13
2022-09-17T14:41:10.956Z,13.60
2022-09-17T14:44:12.502Z,3.47
2022-09-17T14:47:06.137Z,2.80
2022-09-17T14:49:36.110Z,3.22
2022-09-17T14:52:30.431Z,2.53
2022-09-17T14:55:26.735Z,1.63
2022-09-17T14:57:57.179Z,1.85
2022-09-17T15:00:31.451Z,2.90
2022-09-17T15:03:01.706Z,2.00
2022-09-17T15:05:35.637Z,1.50
2022-09-17T15:10:52.020Z,1.30
2022-09-17T15:13:31.552Z,1.80
2022-09-17T15:16:23.815Z,1.23
2022-09-17T15:18:57.530Z,1.80
2022-09-17T15:21:42.564Z,0.70
2022-09-17T15:24:40.296Z,1.02
2022-09-17T15:27:23.506Z,0.40
2022-09-17T15:29:57.662Z,2.07
2022-09-17T15:32:25.470Z,0.80
2022-09-17T15:35:13.722Z,0.43
2022-09-17T15:38:18.487Z,1.35
2022-09-17T15:40:42.905Z,1.25
2022-09-17T15:43:30.693Z,0.57
2022-09-17T15:46:26.992Z,0.73
2022-09-17T15:48:56.269Z,2.05
2022-09-17T15:51:44.912Z,1.02
2022-09-17T15:54:31.500Z,1.55
2022-09-17T15:57:04.816Z,2.78
2022-09-17T15:59:35.050Z,0.77
2022-09-17T16:02:02.573Z,1.60
2022-09-17T16:04:34.442Z,1.70
2022-09-17T16:07:29.240Z,0.85
2022-09-17T16:09:57.645Z,0.75
2022-09-17T16:12:28.697Z,1.35
2022-09-17T16:14:58.932Z,2.83
2022-09-17T16:17:45.709Z,1.58
2022-09-17T16:20:23.498Z,1.48
2022-09-17T16:22:52.291Z,2.13
2022-09-17T16:25:26.562Z,1.58
2022-09-17T16:27:57.628Z,1.15
2022-09-17T16:30:25.520Z,1.50
2022-09-17T16:32:53.723Z,2.83
2022-09-17T16:35:26.341Z,2.17
2022-09-17T16:37:55.816Z,0.90
2022-09-17T16:40:25.352Z,1.83
2022-09-17T16:42:52.106Z,1.33
2022-09-17T16:45:18.893Z,2.15
2022-09-17T16:47:45.990Z,0.52
2022-09-17T16:50:17.191Z,1.38
2022-09-17T16:52:45.222Z,1.65
2022-09-17T16:55:17.488Z,0.80
2022-09-17T16:57:44.755Z,1.92
2022-09-17T17:00:16.854Z,0.75
2022-09-17T17:02:44.987Z,2.20
2022-09-17T17:05:11.786Z,1.70
2022-09-17T17:07:38.509Z,0.80
2022-09-17T17:10:08.972Z,0.98
2022-09-17T17:12:37.049Z,2.60
2022-09-17T17:15:06.306Z,1.33
2022-09-17T17:17:35.623Z,1.15
2022-09-17T17:20:13.631Z,1.58
2022-09-17T17:22:44.793Z,2.47
2022-09-17T17:25:14.451Z,0.75
2022-09-17T17:27:41.566Z,1.13
2022-09-17T17:30:10.795Z,1.15
2022-09-17T17:32:37.651Z,1.58
2022-09-17T17:35:06.365Z,1.50
2022-09-17T17:37:33.230Z,1.00
2022-09-17T17:40:00.410Z,2.03
2022-09-17T17:42:27.368Z,2.83
2022-09-17T17:44:55.571Z,2.78
2022-09-17T17:47:22.276Z,1.55
2022-09-17T17:49:49.038Z,2.22
2022-09-17T17:52:15.769Z,0.90
2022-09-17T17:54:42.476Z,1.48
2022-09-17T17:57:10.388Z,2.40
2022-09-17T17:59:37.113Z,1.85
2022-09-17T18:02:04.156Z,2.88
2022-09-17T18:04:30.948Z,2.33
2022-09-17T18:06:57.817Z,1.60
2022-09-17T18:09:24.856Z,1.65
2022-09-17T18:11:51.638Z,1.45
2022-09-17T18:14:18.406Z,1.35
2022-09-17T18:16:45.172Z,1.15
2022-09-17T18:19:12.249Z,1.52
2022-09-17T18:21:39.058Z,2.05
2022-09-17T18:24:05.933Z,1.77
2022-09-17T18:26:34.201Z,2.53
2022-09-17T18:29:05.624Z,1.35
2022-09-17T18:31:37.962Z,1.48
2022-09-17T18:34:13.467Z,1.10
2022-09-17T18:36:40.945Z,2.45
2022-09-17T18:41:59.959Z,1.48
2022-09-17T18:44:26.690Z,1.48
2022-09-17T18:46:53.466Z,3.38
2022-09-17T18:49:20.236Z,1.63
2022-09-17T18:51:46.998Z,2.20
2022-09-17T18:54:14.760Z,1.58
2022-09-17T18:56:42.209Z,1.42
2022-09-17T18:59:10.312Z,2.15
2022-09-17T19:01:37.391Z,1.50
2022-09-17T19:04:04.917Z,1.08
2022-09-17T19:06:32.203Z,1.73
2022-09-17T19:09:01.443Z,1.20
2022-09-17T19:11:29.067Z,1.65
2022-09-17T19:13:56.038Z,1.77
2022-09-17T19:16:22.909Z,3.10
2022-09-17T19:18:49.843Z,2.47
2022-09-17T19:21:21.504Z,3.05
2022-09-17T19:23:51.301Z,1.38
2022-09-17T19:26:24.401Z,1.52
2022-09-17T19:28:57.707Z,1.60
2022-09-17T19:31:24.994Z,1.17
2022-09-17T19:33:52.062Z,1.75
2022-09-17T19:36:20.398Z,1.90
2022-09-17T19:38:48.805Z,1.85
2022-09-17T19:41:19.010Z,1.92
2022-09-17T19:43:46.495Z,1.38
2022-09-17T19:46:17.945Z,2.00
2022-09-17T19:48:57.122Z,2.25
2022-09-17T19:51:26.440Z,1.52
2022-09-17T19:53:53.367Z,1.77
2022-09-17T19:56:24.275Z,1.40
2022-09-17T19:58:51.911Z,1.45
2022-09-17T20:01:21.098Z,0.95
2022-09-17T20:03:48.194Z,1.48
2022-09-17T20:06:18.783Z,1.15
2022-09-17T20:08:47.954Z,1.13
2022-09-17T20:11:17.179Z,1.35
2022-09-17T20:13:44.460Z,1.00
2022-09-17T20:16:15.226Z,1.13
2022-09-17T20:18:43.881Z,2.15
2022-09-17T20:21:26.425Z,2.22
2022-09-17T20:23:54.161Z,1.58
2022-09-17T20:26:21.999Z,3.00
2022-09-17T20:28:50.420Z,1.98
2022-09-17T20:31:21.479Z,1.83
2022-09-17T20:34:01.139Z,1.38
2022-09-17T20:36:31.611Z,2.17
2022-09-17T20:39:21.018Z,2.72
2022-09-17T20:41:45.387Z,4.32
2022-09-17T20:44:12.080Z,3.15
2022-09-17T20:46:38.915Z,2.00
2022-09-17T20:49:05.820Z,2.00
2022-09-17T20:51:33.820Z,3.50
2022-09-17T20:54:01.577Z,2.17
2022-09-17T20:56:33.144Z,2.33
2022-09-17T20:59:09.441Z,2.50
2022-09-17T21:01:37.656Z,2.55
2022-09-17T21:04:07.435Z,3.22
2022-09-17T21:06:43.163Z,3.00
2022-09-17T21:09:12.295Z,2.95
2022-09-17T21:11:39.138Z,2.50
2022-09-17T21:14:05.971Z,3.75
2022-09-17T21:16:32.917Z,4.80
2022-09-17T21:19:04.459Z,4.35
2022-09-17T21:21:34.432Z,2.85
2022-09-17T21:24:04.821Z,1.90
2022-09-17T21:26:33.902Z,3.10
2022-09-17T21:29:00.660Z,3.10
2022-09-17T21:31:32.609Z,2.20
2022-09-17T21:34:04.412Z,3.47
2022-09-17T21:36:34.765Z,1.60
2022-09-17T21:39:05.842Z,2.55
2022-09-17T21:41:32.954Z,1.88
2022-09-17T21:44:00.095Z,2.42
2022-09-17T21:46:33.547Z,3.00
2022-09-17T21:49:02.330Z,2.08
2022-09-17T21:51:37.247Z,3.20
2022-09-17T21:54:11.579Z,1.92
2022-09-17T21:56:38.664Z,2.28
2022-09-17T21:59:08.782Z,3.15
2022-09-17T22:01:40.288Z,3.40
2022-09-17T22:04:10.417Z,2.38
2022-09-17T22:06:38.103Z,3.60
2022-09-17T22:09:07.930Z,4.30
2022-09-17T22:11:37.346Z,2.97
2022-09-17T22:14:11.061Z,2.97
2022-09-17T22:16:43.752Z,4.40
2022-09-17T22:19:13.722Z,3.53
2022-09-17T22:21:48.314Z,3.40
2022-09-17T22:24:17.271Z,3.83
2022-09-17T22:26:50.784Z,2.60
2022-09-17T22:29:23.021Z,4.45
2022-09-17T22:31:50.203Z,1.20
2022-09-17T22:34:22.815Z,3.17
2022-09-17T22:36:50.226Z,2.47
2022-09-17T22:39:20.436Z,2.55
2022-09-17T22:41:47.393Z,2.85
2022-09-17T22:44:18.197Z,2.00
2022-09-17T22:46:48.131Z,3.95
2022-09-17T22:49:16.180Z,3.30
2022-09-17T22:51:45.114Z,2.60
2022-09-17T22:54:14.451Z,2.13
2022-09-17T22:56:42.398Z,2.95
2022-09-17T22:59:10.356Z,3.60
2022-09-17T23:01:39.066Z,2.30
2022-09-17T23:04:06.434Z,3.72
2022-09-17T23:06:38.208Z,3.42
2022-09-17T23:09:06.271Z,3.03
2022-09-17T23:11:37.891Z,2.33
2022-09-17T23:14:09.565Z,3.40
2022-09-17T23:16:46.439Z,2.45
2022-09-17T23:19:15.792Z,3.58
2022-09-17T23:21:43.276Z,2.17
2022-09-17T23:24:20.541Z,3.55
2022-09-17T23:26:48.304Z,2.03
2022-09-17T23:29:15.661Z,1.92
2022-09-17T23:31:43.310Z,3.90
2022-09-17T23:34:10.672Z,2.08
2022-09-17T23:36:39.788Z,4.05
2022-09-17T23:39:09.148Z,2.15
2022-09-17T23:41:43.358Z,1.85
2022-09-17T23:44:15.305Z,2.40
2022-09-17T23:46:44.106Z,1.83
2022-09-17T23:49:14.198Z,5.97
2022-09-17T23:51:41.611Z,1.60
2022-09-17T23:54:08.441Z,2.10
2022-09-17T23:56:35.449Z,4.00
2022-09-17T23:59:02.986Z,2.08
